sensor_id;sensor_type;location;lat;lon;timestamp;P1;durP1;ratioP1;P2;durP2;ratioP2
11504;SDS011;5809;53.262;10.408;2022-09-09T00:00:13;95.40;;;32.35;;
11504;SDS011;5809;53.262;10.408;2022-09-09T00:02:43;74.70;;;30.17;;
11504;SDS011;5809;53.262;10.408;2022-09-09T00:05:14;67.15;;;29.77;;
11504;SDS011;5809;53.262;10.408;2022-09-09T00:07:46;66.70;;;30.98;;
11504;SDS011;5809;53.262;10.408;2022-09-09T00:10:16;61.15;;;30.02;;
11504;SDS011;5809;53.262;10.408;2022-09-09T00:12:51;58.05;;;29.85;;
11504;SDS011;5809;53.262;10.408;2022-09-09T00:15:25;51.08;;;29.20;;
11504;SDS011;5809;53.262;10.408;2022-09-09T00:17:57;54.70;;;30.17;;
11504;SDS011;5809;53.262;10.408;2022-09-09T00:20:32;51.78;;;30.65;;
11504;SDS011;5809;53.262;10.408;2022-09-09T00:23:00;57.28;;;31.05;;
11504;SDS011;5809;53.262;10.408;2022-09-09T00:25:32;51.83;;;29.92;;
11504;SDS011;5809;53.262;10.408;2022-09-09T00:28:04;47.90;;;28.33;;
11504;SDS011;5809;53.262;10.408;2022-09-09T00:30:43;51.17;;;29.80;;
11504;SDS011;5809;53.262;10.408;2022-09-09T00:33:13;46.42;;;27.73;;
11504;SDS011;5809;53.262;10.408;2022-09-09T00:35:42;50.20;;;29.48;;
11504;SDS011;5809;53.262;10.408;2022-09-09T00:38:12;49.05;;;29.30;;
11504;SDS011;5809;53.262;10.408;2022-09-09T00:40:45;59.10;;;30.17;;
11504;SDS011;5809;53.262;10.408;2022-09-09T00:43:21;50.97;;;28.92;;
11504;SDS011;5809;53.262;10.408;2022-09-09T00:48:46;53.53;;;29.92;;
11504;SDS011;5809;53.262;10.408;2022-09-09T00:51:17;55.92;;;30.83;;
11504;SDS011;5809;53.262;10.408;2022-09-09T00:53:58;60.00;;;32.38;;
11504;SDS011;5809;53.262;10.408;2022-09-09T00:56:26;66.82;;;31.75;;
11504;SDS011;5809;53.262;10.408;2022-09-09T00:58:59;57.28;;;31.42;;
11504;SDS011;5809;53.262;10.408;2022-09-09T01:01:28;112.38;;;33.10;;
11504;SDS011;5809;53.262;10.408;2022-09-09T01:03:55;255.90;;;38.95;;
11504;SDS011;5809;53.262;10.408;2022-09-09T01:06:26;520.25;;;46.63;;
11504;SDS011;5809;53.262;10.408;2022-09-09T01:09:05;539.28;;;48.10;;
11504;SDS011;5809;53.262;10.408;2022-09-09T01:11:41;442.85;;;45.30;;
11504;SDS011;5809;53.262;10.408;2022-09-09T01:14:13;479.10;;;48.65;;
11504;SDS011;5809;53.262;10.408;2022-09-09T01:16:42;266.05;;;36.97;;
11504;SDS011;5809;53.262;10.408;2022-09-09T01:19:10;178.30;;;35.25;;
11504;SDS011;5809;53.262;10.408;2022-09-09T01:21:41;295.38;;;39.50;;
11504;SDS011;5809;53.262;10.408;2022-09-09T01:24:19;224.53;;;34.10;;
11504;SDS011;5809;53.262;10.408;2022-09-09T01:26:52;282.02;;;38.58;;
11504;SDS011;5809;53.262;10.408;2022-09-09T01:29:22;327.73;;;34.60;;
11504;SDS011;5809;53.262;10.408;2022-09-09T01:31:52;443.10;;;41.78;;
11504;SDS011;5809;53.262;10.408;2022-09-09T01:34:21;285.85;;;35.00;;
11504;SDS011;5809;53.262;10.408;2022-09-09T01:36:49;361.50;;;39.67;;
11504;SDS011;5809;53.262;10.408;2022-09-09T01:39:23;335.57;;;36.73;;
11504;SDS011;5809;53.262;10.408;2022-09-09T01:41:52;171.40;;;32.67;;
11504;SDS011;5809;53.262;10.408;2022-09-09T01:44:21;216.73;;;33.20;;
11504;SDS011;5809;53.262;10.408;2022-09-09T01:46:48;202.07;;;33.28;;
11504;SDS011;5809;53.262;10.408;2022-09-09T01:49:15;130.70;;;31.55;;
11504;SDS011;5809;53.262;10.408;2022-09-09T01:51:43;106.00;;;29.83;;
11504;SDS011;5809;53.262;10.408;2022-09-09T01:54:11;165.38;;;34.47;;
11504;SDS011;5809;53.262;10.408;2022-09-09T01:56:40;267.43;;;34.97;;
11504;SDS011;5809;53.262;10.408;2022-09-09T01:59:16;284.15;;;37.05;;
11504;SDS011;5809;53.262;10.408;2022-09-09T02:01:47;167.35;;;33.72;;
11504;SDS011;5809;53.262;10.408;2022-09-09T02:04:27;228.77;;;37.38;;
11504;SDS011;5809;53.262;10.408;2022-09-09T02:07:01;95.75;;;32.00;;
11504;SDS011;5809;53.262;10.408;2022-09-09T02:09:29;99.03;;;32.70;;
11504;SDS011;5809;53.262;10.408;2022-09-09T02:11:57;98.13;;;29.75;;
11504;SDS011;5809;53.262;10.408;2022-09-09T02:14:33;129.48;;;34.60;;
11504;SDS011;5809;53.262;10.408;2022-09-09T02:17:03;81.07;;;32.45;;
11504;SDS011;5809;53.262;10.408;2022-09-09T02:19:33;52.60;;;29.90;;
11504;SDS011;5809;53.262;10.408;2022-09-09T02:22:03;56.75;;;30.25;;
11504;SDS011;5809;53.262;10.408;2022-09-09T02:24:31;47.60;;;29.20;;
11504;SDS011;5809;53.262;10.408;2022-09-09T02:27:03;47.83;;;27.80;;
11504;SDS011;5809;53.262;10.408;2022-09-09T02:29:36;48.00;;;28.35;;
11504;SDS011;5809;53.262;10.408;2022-09-09T02:32:07;49.30;;;29.75;;
11504;SDS011;5809;53.262;10.408;2022-09-09T02:34:38;48.03;;;28.40;;
11504;SDS011;5809;53.262;10.408;2022-09-09T02:37:06;45.72;;;28.58;;
11504;SDS011;5809;53.262;10.408;2022-09-09T02:39:35;51.28;;;29.25;;
11504;SDS011;5809;53.262;10.408;2022-09-09T02:42:03;46.75;;;27.67;;
11504;SDS011;5809;53.262;10.408;2022-09-09T02:44:30;47.70;;;26.98;;
11504;SDS011;5809;53.262;10.408;2022-09-09T02:47:03;45.13;;;27.53;;
11504;SDS011;5809;53.262;10.408;2022-09-09T02:49:40;47.97;;;28.55;;
11504;SDS011;5809;53.262;10.408;2022-09-09T02:52:12;47.00;;;27.83;;
11504;SDS011;5809;53.262;10.408;2022-09-09T02:54:41;42.63;;;27.43;;
11504;SDS011;5809;53.262;10.408;2022-09-09T02:57:10;46.63;;;28.25;;
11504;SDS011;5809;53.262;10.408;2022-09-09T02:59:37;41.72;;;27.48;;
11504;SDS011;5809;53.262;10.408;2022-09-09T03:02:06;42.15;;;26.77;;
11504;SDS011;5809;53.262;10.408;2022-09-09T03:04:36;44.00;;;28.13;;
11504;SDS011;5809;53.262;10.408;2022-09-09T03:07:03;55.00;;;30.20;;
11504;SDS011;5809;53.262;10.408;2022-09-09T03:09:30;49.22;;;27.98;;
11504;SDS011;5809;53.262;10.408;2022-09-09T03:11:58;41.43;;;27.20;;
11504;SDS011;5809;53.262;10.408;2022-09-09T03:14:26;39.63;;;26.65;;
11504;SDS011;5809;53.262;10.408;2022-09-09T03:16:53;43.10;;;26.60;;
11504;SDS011;5809;53.262;10.408;2022-09-09T03:19:22;46.60;;;27.17;;
11504;SDS011;5809;53.262;10.408;2022-09-09T03:21:49;40.83;;;25.53;;
11504;SDS011;5809;53.262;10.408;2022-09-09T03:24:16;37.47;;;25.95;;
11504;SDS011;5809;53.262;10.408;2022-09-09T03:26:44;36.63;;;25.08;;
11504;SDS011;5809;53.262;10.408;2022-09-09T03:29:10;41.63;;;25.93;;
11504;SDS011;5809;53.262;10.408;2022-09-09T03:31:38;36.92;;;25.58;;
11504;SDS011;5809;53.262;10.408;2022-09-09T03:34:05;38.23;;;25.73;;
11504;SDS011;5809;53.262;10.408;2022-09-09T03:36:34;38.70;;;24.65;;
11504;SDS011;5809;53.262;10.408;2022-09-09T03:39:02;37.83;;;25.15;;
11504;SDS011;5809;53.262;10.408;2022-09-09T03:41:29;34.03;;;24.20;;
11504;SDS011;5809;53.262;10.408;2022-09-09T03:43:56;33.92;;;24.45;;
11504;SDS011;5809;53.262;10.408;2022-09-09T03:46:24;34.28;;;24.10;;
11504;SDS011;5809;53.262;10.408;2022-09-09T03:48:52;33.88;;;22.98;;
11504;SDS011;5809;53.262;10.408;2022-09-09T03:51:19;37.63;;;25.00;;
11504;SDS011;5809;53.262;10.408;2022-09-09T03:53:48;32.10;;;22.67;;
11504;SDS011;5809;53.262;10.408;2022-09-09T03:56:15;36.83;;;24.27;;
11504;SDS011;5809;53.262;10.408;2022-09-09T03:58:42;36.08;;;23.25;;
11504;SDS011;5809;53.262;10.408;2022-09-09T04:01:10;33.42;;;22.98;;
11504;SDS011;5809;53.262;10.408;2022-09-09T04:03:39;39.03;;;24.30;;
11504;SDS011;5809;53.262;10.408;2022-09-09T04:06:06;29.52;;;21.48;;
11504;SDS011;5809;53.262;10.408;2022-09-09T04:08:35;32.77;;;21.90;;
11504;SDS011;5809;53.262;10.408;2022-09-09T04:11:05;36.73;;;23.73;;
11504;SDS011;5809;53.262;10.408;2022-09-09T04:13:32;30.20;;;21.90;;
11504;SDS011;5809;53.262;10.408;2022-09-09T04:16:00;31.67;;;22.10;;
11504;SDS011;5809;53.262;10.408;2022-09-09T04:18:28;29.63;;;20.42;;
11504;SDS011;5809;53.262;10.408;2022-09-09T04:20:55;27.30;;;20.67;;
11504;SDS011;5809;53.262;10.408;2022-09-09T04:23:23;36.83;;;21.40;;
11504;SDS011;5809;53.262;10.408;2022-09-09T04:25:51;30.87;;;21.07;;
11504;SDS011;5809;53.262;10.408;2022-09-09T04:28:21;29.42;;;20.58;;
11504;SDS011;5809;53.262;10.408;2022-09-09T04:30:49;36.63;;;22.20;;
11504;SDS011;5809;53.262;10.408;2022-09-09T04:33:17;30.08;;;20.08;;
11504;SDS011;5809;53.262;10.408;2022-09-09T04:35:44;25.63;;;19.17;;
11504;SDS011;5809;53.262;10.408;2022-09-09T04:38:12;27.07;;;19.50;;
11504;SDS011;5809;53.262;10.408;2022-09-09T04:40:41;28.55;;;19.50;;
11504;SDS011;5809;53.262;10.408;2022-09-09T04:43:09;22.02;;;17.35;;
11504;SDS011;5809;53.262;10.408;2022-09-09T04:45:37;25.65;;;18.48;;
11504;SDS011;5809;53.262;10.408;2022-09-09T04:48:05;27.75;;;17.08;;
11504;SDS011;5809;53.262;10.408;2022-09-09T04:50:32;24.33;;;17.52;;
11504;SDS011;5809;53.262;10.408;2022-09-09T04:53:00;20.67;;;17.27;;
11504;SDS011;5809;53.262;10.408;2022-09-09T04:55:27;21.27;;;15.90;;
11504;SDS011;5809;53.262;10.408;2022-09-09T04:57:55;20.85;;;16.20;;
11504;SDS011;5809;53.262;10.408;2022-09-09T05:00:22;19.63;;;15.23;;
11504;SDS011;5809;53.262;10.408;2022-09-09T05:02:51;17.85;;;14.73;;
11504;SDS011;5809;53.262;10.408;2022-09-09T05:05:18;24.10;;;16.33;;
11504;SDS011;5809;53.262;10.408;2022-09-09T05:07:44;21.33;;;16.30;;
11504;SDS011;5809;53.262;10.408;2022-09-09T05:10:12;22.08;;;15.57;;
11504;SDS011;5809;53.262;10.408;2022-09-09T05:12:41;19.85;;;14.98;;
11504;SDS011;5809;53.262;10.408;2022-09-09T05:15:08;19.15;;;13.73;;
11504;SDS011;5809;53.262;10.408;2022-09-09T05:17:36;16.00;;;14.10;;
11504;SDS011;5809;53.262;10.408;2022-09-09T05:20:05;17.98;;;13.60;;
11504;SDS011;5809;53.262;10.408;2022-09-09T05:22:33;15.23;;;12.18;;
11504;SDS011;5809;53.262;10.408;2022-09-09T05:25:00;20.58;;;12.98;;
11504;SDS011;5809;53.262;10.408;2022-09-09T05:27:27;14.88;;;12.40;;
11504;SDS011;5809;53.262;10.408;2022-09-09T05:29:56;21.58;;;13.40;;
11504;SDS011;5809;53.262;10.408;2022-09-09T05:32:23;19.77;;;13.93;;
11504;SDS011;5809;53.262;10.408;2022-09-09T05:34:51;20.40;;;14.25;;
11504;SDS011;5809;53.262;10.408;2022-09-09T05:37:19;20.25;;;13.60;;
11504;SDS011;5809;53.262;10.408;2022-09-09T05:39:46;18.52;;;13.63;;
11504;SDS011;5809;53.262;10.408;2022-09-09T05:42:12;17.00;;;13.95;;
11504;SDS011;5809;53.262;10.408;2022-09-09T05:44:40;17.83;;;13.05;;
11504;SDS011;5809;53.262;10.408;2022-09-09T05:47:09;13.27;;;11.93;;
11504;SDS011;5809;53.262;10.408;2022-09-09T05:49:36;11.82;;;10.57;;
11504;SDS011;5809;53.262;10.408;2022-09-09T05:52:04;10.98;;;9.85;;
11504;SDS011;5809;53.262;10.408;2022-09-09T05:54:32;10.45;;;8.77;;
11504;SDS011;5809;53.262;10.408;2022-09-09T05:56:59;9.80;;;8.75;;
11504;SDS011;5809;53.262;10.408;2022-09-09T05:59:26;10.45;;;8.60;;
11504;SDS011;5809;53.262;10.408;2022-09-09T06:01:53;10.68;;;9.00;;
11504;SDS011;5809;53.262;10.408;2022-09-09T06:04:20;11.48;;;8.93;;
11504;SDS011;5809;53.262;10.408;2022-09-09T06:06:49;10.90;;;8.63;;
11504;SDS011;5809;53.262;10.408;2022-09-09T06:09:16;11.43;;;9.10;;
11504;SDS011;5809;53.262;10.408;2022-09-09T06:11:45;8.75;;;7.85;;
11504;SDS011;5809;53.262;10.408;2022-09-09T06:14:12;12.95;;;8.10;;
11504;SDS011;5809;53.262;10.408;2022-09-09T06:16:39;9.30;;;7.93;;
11504;SDS011;5809;53.262;10.408;2022-09-09T06:19:09;9.27;;;7.53;;
11504;SDS011;5809;53.262;10.408;2022-09-09T06:21:37;9.77;;;7.95;;
11504;SDS011;5809;53.262;10.408;2022-09-09T06:24:05;11.60;;;6.88;;
11504;SDS011;5809;53.262;10.408;2022-09-09T06:26:34;8.23;;;6.57;;
11504;SDS011;5809;53.262;10.408;2022-09-09T06:29:03;9.25;;;7.07;;
11504;SDS011;5809;53.262;10.408;2022-09-09T06:31:31;8.52;;;6.82;;
11504;SDS011;5809;53.262;10.408;2022-09-09T06:33:59;8.93;;;6.28;;
11504;SDS011;5809;53.262;10.408;2022-09-09T06:36:27;12.07;;;7.25;;
11504;SDS011;5809;53.262;10.408;2022-09-09T06:38:55;9.05;;;6.35;;
11504;SDS011;5809;53.262;10.408;2022-09-09T06:41:23;8.57;;;6.07;;
11504;SDS011;5809;53.262;10.408;2022-09-09T06:43:51;9.35;;;6.50;;
11504;SDS011;5809;53.262;10.408;2022-09-09T06:46:20;13.57;;;7.32;;
11504;SDS011;5809;53.262;10.408;2022-09-09T06:48:48;8.88;;;7.55;;
11504;SDS011;5809;53.262;10.408;2022-09-09T06:51:16;10.13;;;8.10;;
11504;SDS011;5809;53.262;10.408;2022-09-09T06:53:46;11.25;;;8.23;;
11504;SDS011;5809;53.262;10.408;2022-09-09T06:56:18;11.18;;;8.48;;
11504;SDS011;5809;53.262;10.408;2022-09-09T06:58:46;9.73;;;8.38;;
11504;SDS011;5809;53.262;10.408;2022-09-09T07:01:14;10.68;;;7.70;;
11504;SDS011;5809;53.262;10.408;2022-09-09T07:03:45;9.70;;;7.20;;
11504;SDS011;5809;53.262;10.408;2022-09-09T07:06:13;8.88;;;6.57;;
11504;SDS011;5809;53.262;10.408;2022-09-09T07:08:42;8.75;;;6.05;;
11504;SDS011;5809;53.262;10.408;2022-09-09T07:11:09;5.07;;;4.60;;
11504;SDS011;5809;53.262;10.408;2022-09-09T07:13:37;9.13;;;5.38;;
11504;SDS011;5809;53.262;10.408;2022-09-09T07:16:04;6.78;;;4.15;;
11504;SDS011;5809;53.262;10.408;2022-09-09T07:18:32;5.47;;;3.70;;
11504;SDS011;5809;53.262;10.408;2022-09-09T07:21:01;7.47;;;4.00;;
11504;SDS011;5809;53.262;10.408;2022-09-09T07:23:29;4.00;;;3.60;;
11504;SDS011;5809;53.262;10.408;2022-09-09T07:25:57;6.95;;;3.35;;
11504;SDS011;5809;53.262;10.408;2022-09-09T07:28:24;5.90;;;3.75;;
11504;SDS011;5809;53.262;10.408;2022-09-09T07:30:53;5.32;;;3.08;;
11504;SDS011;5809;53.262;10.408;2022-09-09T07:33:20;3.90;;;2.80;;
11504;SDS011;5809;53.262;10.408;2022-09-09T07:35:47;4.18;;;2.65;;
11504;SDS011;5809;53.262;10.408;2022-09-09T07:38:16;4.63;;;2.42;;
11504;SDS011;5809;53.262;10.408;2022-09-09T07:40:43;4.78;;;2.35;;
11504;SDS011;5809;53.262;10.408;2022-09-09T07:43:11;3.20;;;2.40;;
11504;SDS011;5809;53.262;10.408;2022-09-09T07:45:38;3.95;;;2.30;;
11504;SDS011;5809;53.262;10.408;2022-09-09T07:48:05;4.50;;;2.53;;
11504;SDS011;5809;53.262;10.408;2022-09-09T07:50:32;3.95;;;1.90;;
11504;SDS011;5809;53.262;10.408;2022-09-09T07:52:59;2.50;;;1.85;;
11504;SDS011;5809;53.262;10.408;2022-09-09T07:55:28;2.33;;;1.60;;
11504;SDS011;5809;53.262;10.408;2022-09-09T07:57:55;3.20;;;2.08;;
11504;SDS011;5809;53.262;10.408;2022-09-09T08:00:22;2.90;;;1.70;;
11504;SDS011;5809;53.262;10.408;2022-09-09T08:02:49;2.55;;;1.90;;
11504;SDS011;5809;53.262;10.408;2022-09-09T08:05:17;3.00;;;2.10;;
11504;SDS011;5809;53.262;10.408;2022-09-09T08:07:44;4.07;;;2.33;;
11504;SDS011;5809;53.262;10.408;2022-09-09T08:10:11;6.22;;;2.25;;
11504;SDS011;5809;53.262;10.408;2022-09-09T08:12:40;2.60;;;2.03;;
11504;SDS011;5809;53.262;10.408;2022-09-09T08:15:07;4.43;;;2.53;;
11504;SDS011;5809;53.262;10.408;2022-09-09T08:17:34;3.95;;;2.10;;
11504;SDS011;5809;53.262;10.408;2022-09-09T08:20:03;3.20;;;1.67;;
11504;SDS011;5809;53.262;10.408;2022-09-09T08:22:30;4.78;;;2.28;;
11504;SDS011;5809;53.262;10.408;2022-09-09T08:24:57;3.00;;;2.00;;
11504;SDS011;5809;53.262;10.408;2022-09-09T08:27:24;4.68;;;2.20;;
11504;SDS011;5809;53.262;10.408;2022-09-09T08:29:52;3.65;;;2.28;;
11504;SDS011;5809;53.262;10.408;2022-09-09T08:32:21;3.63;;;2.00;;
11504;SDS011;5809;53.262;10.408;2022-09-09T08:34:47;4.97;;;2.30;;
11504;SDS011;5809;53.262;10.408;2022-09-09T08:37:14;3.70;;;2.20;;
11504;SDS011;5809;53.262;10.408;2022-09-09T08:39:41;4.15;;;2.55;;
11504;SDS011;5809;53.262;10.408;2022-09-09T08:42:12;3.15;;;2.20;;
11504;SDS011;5809;53.262;10.408;2022-09-09T08:44:59;3.90;;;2.17;;
11504;SDS011;5809;53.262;10.408;2022-09-09T08:47:56;6.18;;;2.25;;
11504;SDS011;5809;53.262;10.408;2022-09-09T08:50:30;5.05;;;2.50;;
11504;SDS011;5809;53.262;10.408;2022-09-09T08:53:01;5.07;;;2.38;;
11504;SDS011;5809;53.262;10.408;2022-09-09T08:55:35;3.22;;;1.80;;
11504;SDS011;5809;53.262;10.408;2022-09-09T08:58:09;3.72;;;2.25;;
11504;SDS011;5809;53.262;10.408;2022-09-09T09:00:42;7.03;;;2.80;;
11504;SDS011;5809;53.262;10.408;2022-09-09T09:03:28;3.88;;;2.33;;
11504;SDS011;5809;53.262;10.408;2022-09-09T09:06:04;4.50;;;2.50;;
11504;SDS011;5809;53.262;10.408;2022-09-09T09:08:39;4.10;;;2.20;;
11504;SDS011;5809;53.262;10.408;2022-09-09T09:11:10;3.58;;;2.25;;
11504;SDS011;5809;53.262;10.408;2022-09-09T09:13:38;6.38;;;2.50;;
11504;SDS011;5809;53.262;10.408;2022-09-09T09:16:12;4.63;;;2.15;;
11504;SDS011;5809;53.262;10.408;2022-09-09T09:18:44;4.95;;;2.55;;
11504;SDS011;5809;53.262;10.408;2022-09-09T09:21:12;5.45;;;2.10;;
11504;SDS011;5809;53.262;10.408;2022-09-09T09:23:45;4.22;;;2.20;;
11504;SDS011;5809;53.262;10.408;2022-09-09T09:26:17;4.90;;;2.00;;
11504;SDS011;5809;53.262;10.408;2022-09-09T09:28:44;5.13;;;2.10;;
11504;SDS011;5809;53.262;10.408;2022-09-09T09:31:13;4.20;;;2.20;;
11504;SDS011;5809;53.262;10.408;2022-09-09T09:33:43;2.25;;;1.80;;
11504;SDS011;5809;53.262;10.408;2022-09-09T09:36:14;2.67;;;1.95;;
11504;SDS011;5809;53.262;10.408;2022-09-09T09:38:51;4.80;;;2.13;;
11504;SDS011;5809;53.262;10.408;2022-09-09T09:41:33;5.07;;;2.00;;
11504;SDS011;5809;53.262;10.408;2022-09-09T09:44:02;3.40;;;2.10;;
11504;SDS011;5809;53.262;10.408;2022-09-09T09:46:31;6.13;;;2.15;;
11504;SDS011;5809;53.262;10.408;2022-09-09T09:48:59;3.60;;;1.40;;
11504;SDS011;5809;53.262;10.408;2022-09-09T09:51:26;4.50;;;1.92;;
11504;SDS011;5809;53.262;10.408;2022-09-09T09:54:08;8.55;;;2.10;;
11504;SDS011;5809;53.262;10.408;2022-09-09T09:56:41;3.20;;;2.00;;
11504;SDS011;5809;53.262;10.408;2022-09-09T09:59:19;4.60;;;1.80;;
11504;SDS011;5809;53.262;10.408;2022-09-09T10:01:49;6.10;;;1.80;;
11504;SDS011;5809;53.262;10.408;2022-09-09T10:04:17;2.40;;;1.50;;
11504;SDS011;5809;53.262;10.408;2022-09-09T10:06:45;8.18;;;1.95;;
11504;SDS011;5809;53.262;10.408;2022-09-09T10:09:21;5.18;;;1.65;;
11504;SDS011;5809;53.262;10.408;2022-09-09T10:11:52;4.63;;;1.73;;
11504;SDS011;5809;53.262;10.408;2022-09-09T10:14:24;4.68;;;1.60;;
11504;SDS011;5809;53.262;10.408;2022-09-09T10:17:07;4.03;;;1.50;;
11504;SDS011;5809;53.262;10.408;2022-09-09T10:19:45;4.10;;;1.73;;
11504;SDS011;5809;53.262;10.408;2022-09-09T10:22:25;5.15;;;1.60;;
11504;SDS011;5809;53.262;10.408;2022-09-09T10:25:11;4.13;;;1.50;;
11504;SDS011;5809;53.262;10.408;2022-09-09T10:28:02;2.15;;;1.30;;
11504;SDS011;5809;53.262;10.408;2022-09-09T10:30:49;4.32;;;1.58;;
11504;SDS011;5809;53.262;10.408;2022-09-09T10:33:27;4.18;;;1.83;;
11504;SDS011;5809;53.262;10.408;2022-09-09T10:35:59;3.63;;;1.40;;
11504;SDS011;5809;53.262;10.408;2022-09-09T10:38:36;4.20;;;1.30;;
11504;SDS011;5809;53.262;10.408;2022-09-09T10:41:13;4.80;;;1.50;;
11504;SDS011;5809;53.262;10.408;2022-09-09T10:44:06;4.35;;;1.42;;
11504;SDS011;5809;53.262;10.408;2022-09-09T10:46:46;2.72;;;1.50;;
11504;SDS011;5809;53.262;10.408;2022-09-09T10:49:25;3.28;;;1.30;;
11504;SDS011;5809;53.262;10.408;2022-09-09T10:52:07;3.78;;;1.55;;
11504;SDS011;5809;53.262;10.408;2022-09-09T10:54:46;2.00;;;1.20;;
11504;SDS011;5809;53.262;10.408;2022-09-09T10:57:25;2.88;;;1.40;;
11504;SDS011;5809;53.262;10.408;2022-09-09T10:59:57;4.10;;;1.13;;
11504;SDS011;5809;53.262;10.408;2022-09-09T11:02:29;2.17;;;1.23;;
11504;SDS011;5809;53.262;10.408;2022-09-09T11:04:59;2.75;;;1.27;;
11504;SDS011;5809;53.262;10.408;2022-09-09T11:07:32;2.75;;;1.20;;
11504;SDS011;5809;53.262;10.408;2022-09-09T11:10:02;2.92;;;1.15;;
11504;SDS011;5809;53.262;10.408;2022-09-09T11:12:33;1.92;;;1.10;;
11504;SDS011;5809;53.262;10.408;2022-09-09T11:15:04;3.85;;;1.27;;
11504;SDS011;5809;53.262;10.408;2022-09-09T11:17:33;1.30;;;1.02;;
11504;SDS011;5809;53.262;10.408;2022-09-09T11:20:11;2.83;;;1.33;;
11504;SDS011;5809;53.262;10.408;2022-09-09T11:22:42;3.38;;;1.40;;
11504;SDS011;5809;53.262;10.408;2022-09-09T11:25:15;3.40;;;1.40;;
11504;SDS011;5809;53.262;10.408;2022-09-09T11:27:50;3.97;;;1.50;;
11504;SDS011;5809;53.262;10.408;2022-09-09T11:30:29;5.40;;;1.45;;
11504;SDS011;5809;53.262;10.408;2022-09-09T11:36:21;6.90;;;1.58;;
11504;SDS011;5809;53.262;10.408;2022-09-09T11:39:02;2.20;;;1.30;;
11504;SDS011;5809;53.262;10.408;2022-09-09T11:41:40;3.63;;;1.35;;
11504;SDS011;5809;53.262;10.408;2022-09-09T11:44:10;3.55;;;1.70;;
11504;SDS011;5809;53.262;10.408;2022-09-09T11:46:38;6.63;;;1.73;;
11504;SDS011;5809;53.262;10.408;2022-09-09T11:49:21;7.10;;;2.30;;
11504;SDS011;5809;53.262;10.408;2022-09-09T11:51:54;6.38;;;2.58;;
11504;SDS011;5809;53.262;10.408;2022-09-09T11:54:26;4.43;;;2.58;;
11504;SDS011;5809;53.262;10.408;2022-09-09T11:56:55;10.68;;;3.30;;
11504;SDS011;5809;53.262;10.408;2022-09-09T11:59:23;7.47;;;2.88;;
11504;SDS011;5809;53.262;10.408;2022-09-09T12:01:54;5.68;;;3.15;;
11504;SDS011;5809;53.262;10.408;2022-09-09T12:04:28;6.47;;;3.35;;
11504;SDS011;5809;53.262;10.408;2022-09-09T12:07:05;5.55;;;3.28;;
11504;SDS011;5809;53.262;10.408;2022-09-09T12:09:52;7.32;;;3.90;;
11504;SDS011;5809;53.262;10.408;2022-09-09T12:12:24;6.95;;;3.75;;
11504;SDS011;5809;53.262;10.408;2022-09-09T12:14:57;10.38;;;3.83;;
11504;SDS011;5809;53.262;10.408;2022-09-09T12:17:27;9.38;;;3.90;;
11504;SDS011;5809;53.262;10.408;2022-09-09T12:20:00;7.00;;;3.10;;
11504;SDS011;5809;53.262;10.408;2022-09-09T12:22:35;4.72;;;2.88;;
11504;SDS011;5809;53.262;10.408;2022-09-09T12:25:16;6.50;;;3.30;;
11504;SDS011;5809;53.262;10.408;2022-09-09T12:27:54;4.72;;;2.80;;
11504;SDS011;5809;53.262;10.408;2022-09-09T12:30:32;3.67;;;2.53;;
11504;SDS011;5809;53.262;10.408;2022-09-09T12:33:08;2.80;;;1.80;;
11504;SDS011;5809;53.262;10.408;2022-09-09T12:35:38;4.30;;;1.90;;
11504;SDS011;5809;53.262;10.408;2022-09-09T12:38:10;3.13;;;1.83;;
11504;SDS011;5809;53.262;10.408;2022-09-09T12:40:53;5.82;;;2.05;;
11504;SDS011;5809;53.262;10.408;2022-09-09T12:43:21;3.15;;;2.00;;
11504;SDS011;5809;53.262;10.408;2022-09-09T12:45:49;4.57;;;2.30;;
11504;SDS011;5809;53.262;10.408;2022-09-09T12:48:22;4.28;;;2.17;;
11504;SDS011;5809;53.262;10.408;2022-09-09T12:50:53;3.97;;;2.53;;
11504;SDS011;5809;53.262;10.408;2022-09-09T12:53:22;8.02;;;2.83;;
11504;SDS011;5809;53.262;10.408;2022-09-09T12:55:52;4.25;;;2.40;;
11504;SDS011;5809;53.262;10.408;2022-09-09T12:58:23;5.43;;;2.35;;
11504;SDS011;5809;53.262;10.408;2022-09-09T13:00:51;6.43;;;2.20;;
11504;SDS011;5809;53.262;10.408;2022-09-09T13:03:21;3.33;;;1.60;;
11504;SDS011;5809;53.262;10.408;2022-09-09T13:05:50;2.72;;;1.60;;
11504;SDS011;5809;53.262;10.408;2022-09-09T13:08:18;4.03;;;1.40;;
11504;SDS011;5809;53.262;10.408;2022-09-09T13:10:48;3.08;;;1.60;;
11504;SDS011;5809;53.262;10.408;2022-09-09T13:13:19;2.28;;;1.45;;
11504;SDS011;5809;53.262;10.408;2022-09-09T13:15:49;3.17;;;1.42;;
11504;SDS011;5809;53.262;10.408;2022-09-09T13:18:18;2.65;;;1.50;;
11504;SDS011;5809;53.262;10.408;2022-09-09T13:20:49;2.08;;;1.40;;
11504;SDS011;5809;53.262;10.408;2022-09-09T13:23:17;2.40;;;1.30;;
11504;SDS011;5809;53.262;10.408;2022-09-09T13:25:54;2.45;;;1.60;;
11504;SDS011;5809;53.262;10.408;2022-09-09T13:28:22;3.33;;;1.73;;
11504;SDS011;5809;53.262;10.408;2022-09-09T13:31:00;2.90;;;1.67;;
11504;SDS011;5809;53.262;10.408;2022-09-09T13:33:30;4.60;;;1.95;;
11504;SDS011;5809;53.262;10.408;2022-09-09T13:35:59;3.75;;;1.90;;
11504;SDS011;5809;53.262;10.408;2022-09-09T13:38:29;4.38;;;2.30;;
11504;SDS011;5809;53.262;10.408;2022-09-09T13:41:01;5.82;;;2.40;;
11504;SDS011;5809;53.262;10.408;2022-09-09T13:43:30;4.55;;;2.08;;
11504;SDS011;5809;53.262;10.408;2022-09-09T13:46:01;4.55;;;2.13;;
11504;SDS011;5809;53.262;10.408;2022-09-09T13:48:30;3.13;;;1.70;;
11504;SDS011;5809;53.262;10.408;2022-09-09T13:50:58;3.58;;;2.10;;
11504;SDS011;5809;53.262;10.408;2022-09-09T13:53:26;2.28;;;1.80;;
11504;SDS011;5809;53.262;10.408;2022-09-09T13:55:55;4.38;;;2.38;;
11504;SDS011;5809;53.262;10.408;2022-09-09T13:58:23;5.25;;;2.20;;
11504;SDS011;5809;53.262;10.408;2022-09-09T14:00:51;4.57;;;2.40;;
11504;SDS011;5809;53.262;10.408;2022-09-09T14:03:18;6.85;;;2.70;;
11504;SDS011;5809;53.262;10.408;2022-09-09T14:05:46;4.53;;;2.30;;
11504;SDS011;5809;53.262;10.408;2022-09-09T14:08:20;3.03;;;1.70;;
11504;SDS011;5809;53.262;10.408;2022-09-09T14:10:50;3.35;;;1.65;;
11504;SDS011;5809;53.262;10.408;2022-09-09T14:13:17;5.15;;;1.60;;
11504;SDS011;5809;53.262;10.408;2022-09-09T14:15:47;3.03;;;1.50;;
11504;SDS011;5809;53.262;10.408;2022-09-09T14:18:14;3.38;;;1.48;;
11504;SDS011;5809;53.262;10.408;2022-09-09T14:20:41;3.10;;;1.40;;
11504;SDS011;5809;53.262;10.408;2022-09-09T14:23:10;3.33;;;1.40;;
11504;SDS011;5809;53.262;10.408;2022-09-09T14:25:39;2.92;;;1.38;;
11504;SDS011;5809;53.262;10.408;2022-09-09T14:28:08;2.45;;;1.30;;
11504;SDS011;5809;53.262;10.408;2022-09-09T14:30:36;4.18;;;1.50;;
11504;SDS011;5809;53.262;10.408;2022-09-09T14:33:06;3.05;;;1.50;;
11504;SDS011;5809;53.262;10.408;2022-09-09T14:35:33;6.22;;;1.55;;
11504;SDS011;5809;53.262;10.408;2022-09-09T14:38:01;3.00;;;1.25;;
11504;SDS011;5809;53.262;10.408;2022-09-09T14:40:28;4.07;;;1.48;;
11504;SDS011;5809;53.262;10.408;2022-09-09T14:42:55;2.45;;;1.15;;
11504;SDS011;5809;53.262;10.408;2022-09-09T14:45:23;2.75;;;1.40;;
11504;SDS011;5809;53.262;10.408;2022-09-09T14:47:51;4.95;;;1.42;;
11504;SDS011;5809;53.262;10.408;2022-09-09T14:50:20;3.03;;;1.38;;
11504;SDS011;5809;53.262;10.408;2022-09-09T14:52:48;4.50;;;1.50;;
11504;SDS011;5809;53.262;10.408;2022-09-09T14:55:15;3.70;;;1.75;;
11504;SDS011;5809;53.262;10.408;2022-09-09T14:57:43;3.97;;;1.60;;
11504;SDS011;5809;53.262;10.408;2022-09-09T15:00:10;3.05;;;1.58;;